createdAt,value
2019-04-06T00:01:48.359Z,11.58
2019-04-06T00:04:19.021Z,11.52
2019-04-06T00:06:49.695Z,11.61
2019-04-06T00:09:20.701Z,11.45
2019-04-06T00:11:51.645Z,11.45
2019-04-06T00:14:22.204Z,11.37
2019-04-06T00:16:52.905Z,11.30
2019-04-06T00:19:24.024Z,11.23
2019-04-06T00:21:54.458Z,11.08
2019-04-06T00:24:25.615Z,11.05
2019-04-06T00:26:56.225Z,11.08
2019-04-06T00:29:26.920Z,11.08
2019-04-06T00:32:04.990Z,10.95
2019-04-06T00:34:35.458Z,10.85
2019-04-06T00:37:06.118Z,10.91
2019-04-06T00:39:36.995Z,10.88
2019-04-06T00:42:08.428Z,10.60
2019-04-06T00:44:39.070Z,10.52
2019-04-06T00:47:09.730Z,10.66
2019-04-06T00:49:40.351Z,10.69
2019-04-06T00:52:11.024Z,10.72
2019-04-06T00:54:42.873Z,10.54
2019-04-06T00:57:13.786Z,10.63
2019-04-06T00:59:44.517Z,10.48
2019-04-06T01:02:15.061Z,10.48
2019-04-06T01:04:45.512Z,10.44
2019-04-06T01:07:16.415Z,10.33
2019-04-06T01:09:47.657Z,10.29
2019-04-06T01:12:18.359Z,10.48
2019-04-06T01:14:48.931Z,10.37
2019-04-06T01:17:20.120Z,10.37
2019-04-06T01:19:50.701Z,10.20
2019-04-06T01:22:21.242Z,10.11
2019-04-06T01:24:52.066Z,10.23
2019-04-06T01:27:22.543Z,10.25
2019-04-06T01:29:53.469Z,10.09
2019-04-06T01:32:24.274Z,9.95
2019-04-06T01:34:54.761Z,9.83
2019-04-06T01:37:25.515Z,9.70
2019-04-06T01:39:55.984Z,9.52
2019-04-06T01:42:26.631Z,9.50
2019-04-06T01:44:57.059Z,9.71
2019-04-06T01:47:27.762Z,9.61
2019-04-06T01:49:58.214Z,9.54
2019-04-06T01:52:28.899Z,9.52
2019-04-06T01:54:59.396Z,9.46
2019-04-06T01:57:30.182Z,9.55
2019-04-06T02:00:00.634Z,9.51
2019-04-06T02:02:33.125Z,9.52
2019-04-06T02:05:04.058Z,9.43
2019-04-06T02:07:34.787Z,9.36
2019-04-06T02:10:08.276Z,9.06
2019-04-06T02:12:39.616Z,8.74
2019-04-06T02:15:09.947Z,8.57
2019-04-06T02:17:40.504Z,8.44
2019-04-06T02:20:11.024Z,8.53
2019-04-06T02:22:41.734Z,8.32
2019-04-06T02:25:12.262Z,8.30
2019-04-06T02:27:43.111Z,8.34
2019-04-06T02:30:21.757Z,8.24
2019-04-06T02:33:09.990Z,8.07
2019-04-06T02:35:46.610Z,7.89
2019-04-06T02:38:37.112Z,7.87
2019-04-06T02:41:12.102Z,7.86
2019-04-06T02:43:42.815Z,7.83
2019-04-06T02:46:13.313Z,7.93
2019-04-06T02:48:43.744Z,7.87
2019-04-06T02:51:14.088Z,7.82
2019-04-06T02:53:44.974Z,7.77
2019-04-06T02:56:15.715Z,7.70
2019-04-06T02:58:46.316Z,7.73
2019-04-06T03:01:17.706Z,7.65
2019-04-06T03:03:48.269Z,7.59
2019-04-06T03:06:18.883Z,7.53
2019-04-06T03:08:49.722Z,7.49
2019-04-06T03:11:20.773Z,7.53
2019-04-06T03:13:51.583Z,7.53
2019-04-06T03:16:22.388Z,7.58
2019-04-06T03:18:53.227Z,7.66
2019-04-06T03:21:25.084Z,7.61
2019-04-06T03:23:55.638Z,7.58
2019-04-06T03:26:26.360Z,7.47
2019-04-06T03:28:57.395Z,7.53
2019-04-06T03:31:28.400Z,7.41
2019-04-06T03:33:59.734Z,7.34
2019-04-06T03:36:30.735Z,7.21
2019-04-06T03:39:01.666Z,7.16
2019-04-06T03:41:34.270Z,7.15
2019-04-06T03:44:05.291Z,7.34
2019-04-06T03:46:35.961Z,7.27
2019-04-06T03:49:06.807Z,7.11
2019-04-06T03:51:37.558Z,7.13
2019-04-06T03:54:08.231Z,7.26
2019-04-06T03:56:38.745Z,7.24
2019-04-06T03:59:09.852Z,7.33
2019-04-06T04:01:41.518Z,7.20
2019-04-06T04:04:12.030Z,7.34
2019-04-06T04:06:42.630Z,7.29
2019-04-06T04:09:13.117Z,7.31
2019-04-06T04:11:44.793Z,7.16
2019-04-06T04:14:15.273Z,7.24
2019-04-06T04:16:46.235Z,7.22
2019-04-06T04:19:17.276Z,7.18
2019-04-06T04:21:49.977Z,7.21
2019-04-06T04:24:21.005Z,7.22
2019-04-06T04:26:53.201Z,7.21
2019-04-06T04:29:25.817Z,7.26
2019-04-06T04:31:56.621Z,7.29
2019-04-06T04:34:27.482Z,7.34
2019-04-06T04:36:58.136Z,7.43
2019-04-06T04:39:28.771Z,7.38
2019-04-06T04:41:59.333Z,7.53
2019-04-06T04:44:29.753Z,7.53
2019-04-06T04:47:00.800Z,7.61
2019-04-06T04:49:31.560Z,7.66
2019-04-06T04:52:02.405Z,7.65
2019-04-06T04:54:32.933Z,7.66
2019-04-06T04:57:03.811Z,7.69
2019-04-06T04:59:34.979Z,7.73
2019-04-06T05:02:06.338Z,7.79
2019-04-06T05:04:36.914Z,7.90
2019-04-06T05:07:07.619Z,7.89
2019-04-06T05:09:38.565Z,8.04
2019-04-06T05:12:09.519Z,8.09
2019-04-06T05:15:02.425Z,8.15
2019-04-06T05:17:33.223Z,8.21
2019-04-06T05:20:04.801Z,8.24
2019-04-06T05:22:35.401Z,8.36
2019-04-06T05:25:06.736Z,8.45
2019-04-06T05:27:37.437Z,8.53
2019-04-06T05:30:08.624Z,8.63
2019-04-06T05:32:39.553Z,8.64
2019-04-06T05:35:10.749Z,8.72
2019-04-06T05:37:41.374Z,8.83
2019-04-06T05:40:12.233Z,8.89
2019-04-06T05:42:42.932Z,8.94
2019-04-06T05:45:16.259Z,8.97
2019-04-06T05:47:46.812Z,8.99
2019-04-06T05:50:17.641Z,9.08
2019-04-06T05:52:48.771Z,9.07
2019-04-06T05:55:19.610Z,9.14
2019-04-06T05:57:54.042Z,9.20
2019-04-06T06:00:22.874Z,9.27
2019-04-06T06:02:53.589Z,9.32
2019-04-06T06:05:24.489Z,9.38
2019-04-06T06:07:55.283Z,9.46
2019-04-06T06:10:26.887Z,9.54
2019-04-06T06:12:57.503Z,9.50
2019-04-06T06:15:28.407Z,9.60
2019-04-06T06:17:59.221Z,9.63
2019-04-06T06:20:29.711Z,9.74
2019-04-06T06:23:00.257Z,9.79
2019-04-06T06:25:30.949Z,9.82
2019-04-06T06:28:01.925Z,9.88
2019-04-06T06:30:33.061Z,9.94
2019-04-06T06:33:03.657Z,10.05
2019-04-06T06:35:34.622Z,10.20
2019-04-06T06:38:05.588Z,10.20
2019-04-06T06:40:36.042Z,10.27
2019-04-06T06:43:07.117Z,10.30
2019-04-06T06:45:37.685Z,10.39
2019-04-06T06:48:08.744Z,10.55
2019-04-06T06:50:41.170Z,10.63
2019-04-06T06:53:12.362Z,10.57
2019-04-06T06:55:42.963Z,10.72
2019-04-06T06:58:24.577Z,10.93
2019-04-06T07:00:47.353Z,10.86
2019-04-06T07:03:17.760Z,11.05
2019-04-06T07:05:48.689Z,11.45
2019-04-06T07:08:19.940Z,13.44
2019-04-06T07:10:50.815Z,13.35
2019-04-06T07:13:21.653Z,13.56
2019-04-06T07:15:52.105Z,14.05
2019-04-06T07:18:23.189Z,13.80
2019-04-06T07:20:54.224Z,13.44
2019-04-06T07:23:25.103Z,14.26
2019-04-06T07:25:58.537Z,14.54
2019-04-06T07:28:37.175Z,14.56
2019-04-06T07:31:00.702Z,14.56
2019-04-06T07:33:32.215Z,14.35
2019-04-06T07:36:03.084Z,14.43
2019-04-06T07:38:33.631Z,14.39
2019-04-06T07:41:04.364Z,14.39
2019-04-06T07:43:36.489Z,14.61
2019-04-06T07:46:07.398Z,14.60
2019-04-06T07:48:39.319Z,14.18
2019-04-06T07:51:10.215Z,14.91
2019-04-06T07:53:43.910Z,14.86
2019-04-06T07:56:14.606Z,14.86
2019-04-06T07:58:49.459Z,15.54
2019-04-06T08:01:19.123Z,15.20
2019-04-06T08:03:52.673Z,14.98
2019-04-06T08:06:24.826Z,15.69
2019-04-06T08:08:57.127Z,15.15
2019-04-06T08:11:29.273Z,15.07
2019-04-06T08:14:00.411Z,15.32
2019-04-06T08:16:31.380Z,16.28
2019-04-06T08:19:02.645Z,16.01
2019-04-06T08:21:33.376Z,15.73
2019-04-06T08:24:03.914Z,15.73
2019-04-06T08:26:34.494Z,16.85
2019-04-06T08:29:05.149Z,16.58
2019-04-06T08:31:37.114Z,16.39
2019-04-06T08:34:08.247Z,16.48
2019-04-06T08:36:38.618Z,17.65
2019-04-06T08:39:09.467Z,16.38
2019-04-06T08:41:40.906Z,16.29
2019-04-06T08:44:11.325Z,17.22
2019-04-06T08:46:42.001Z,18.15
2019-04-06T08:49:13.015Z,18.05
2019-04-06T08:51:44.097Z,17.81
2019-04-06T08:54:15.219Z,17.13
2019-04-06T08:56:46.146Z,17.40
2019-04-06T08:59:17.230Z,17.47
2019-04-06T09:01:50.066Z,17.27
2019-04-06T09:04:22.309Z,17.77
2019-04-06T09:06:55.407Z,18.78
2019-04-06T09:09:26.371Z,18.48
2019-04-06T09:11:57.759Z,18.54
2019-04-06T09:14:28.812Z,19.89
2019-04-06T09:17:00.386Z,19.06
2019-04-06T09:19:34.734Z,19.12
2019-04-06T09:22:07.526Z,19.04
2019-04-06T09:24:38.460Z,19.11
2019-04-06T09:27:09.505Z,20.51
2019-04-06T09:29:40.528Z,20.31
2019-04-06T09:32:11.521Z,20.32
2019-04-06T09:34:43.391Z,20.60
2019-04-06T09:37:14.391Z,19.75
2019-04-06T09:39:45.318Z,18.26
2019-04-06T09:42:19.236Z,19.52
2019-04-06T09:44:55.116Z,19.44
2019-04-06T09:47:44.551Z,21.40
2019-04-06T09:50:34.275Z,20.34
2019-04-06T09:53:13.260Z,21.68
2019-04-06T09:55:49.559Z,21.52
2019-04-06T09:58:34.649Z,21.60
2019-04-06T10:01:12.900Z,22.22
2019-04-06T10:04:01.324Z,21.52
2019-04-06T10:06:34.320Z,20.60
2019-04-06T10:09:13.032Z,20.89
2019-04-06T10:11:46.251Z,20.70
2019-04-06T10:14:35.732Z,20.08
2019-04-06T10:17:25.112Z,19.70
2019-04-06T10:20:07.386Z,20.65
2019-04-06T10:22:42.976Z,19.79
2019-04-06T10:25:18.636Z,19.59
2019-04-06T10:28:08.638Z,20.01
2019-04-06T10:30:57.881Z,19.18
2019-04-06T10:33:37.128Z,19.80
2019-04-06T10:36:12.389Z,20.48
2019-04-06T10:39:01.442Z,20.51
2019-04-06T10:41:48.741Z,21.55
2019-04-06T10:44:40.084Z,20.51
2019-04-06T10:47:13.053Z,20.06
2019-04-06T10:50:02.062Z,19.36
2019-04-06T10:52:54.788Z,19.42
2019-04-06T10:55:46.420Z,19.92
2019-04-06T10:58:28.886Z,20.06
2019-04-06T11:01:02.178Z,19.84
2019-04-06T11:03:44.195Z,19.63
2019-04-06T11:06:22.924Z,19.71
2019-04-06T11:09:12.358Z,20.25
2019-04-06T11:12:00.589Z,20.87
2019-04-06T11:14:32.954Z,20.77
2019-04-06T11:17:05.539Z,21.68
2019-04-06T11:19:45.296Z,20.77
2019-04-06T11:22:34.057Z,20.60
2019-04-06T11:25:11.311Z,20.76
2019-04-06T11:27:58.527Z,20.06
2019-04-06T11:30:47.227Z,20.93
2019-04-06T11:33:38.626Z,20.72
2019-04-06T11:36:11.284Z,20.07
2019-04-06T11:38:59.268Z,22.04
2019-04-06T11:41:40.934Z,20.23
2019-04-06T11:44:22.805Z,20.16
2019-04-06T11:46:57.010Z,21.51
2019-04-06T11:49:36.752Z,19.99
2019-04-06T11:52:21.680Z,20.68
2019-04-06T11:54:54.658Z,20.33
2019-04-06T11:57:35.171Z,19.81
2019-04-06T12:00:27.539Z,19.99
2019-04-06T12:03:16.397Z,20.01
2019-04-06T12:05:49.065Z,20.41
2019-04-06T12:08:38.450Z,21.08
2019-04-06T12:11:17.322Z,20.86
2019-04-06T12:13:50.066Z,19.96
2019-04-06T12:16:23.583Z,20.06
2019-04-06T12:19:02.200Z,20.33
2019-04-06T12:21:50.488Z,20.10
2019-04-06T12:24:25.845Z,20.30
2019-04-06T12:27:14.843Z,19.92
2019-04-06T12:29:48.690Z,19.88
2019-04-06T12:32:36.099Z,19.54
2019-04-06T12:35:24.616Z,19.79
2019-04-06T12:38:03.684Z,19.47
2019-04-06T12:40:42.472Z,19.43
2019-04-06T12:43:32.871Z,19.79
2019-04-06T12:46:14.460Z,19.88
2019-04-06T12:48:52.728Z,20.38
2019-04-06T12:51:25.712Z,20.26
2019-04-06T12:54:07.678Z,20.22
2019-04-06T12:56:40.891Z,20.08
2019-04-06T12:59:19.635Z,19.81
2019-04-06T13:02:07.565Z,19.78
2019-04-06T13:04:40.539Z,19.89
2019-04-06T13:07:31.411Z,20.47
2019-04-06T13:10:22.204Z,20.30
2019-04-06T13:13:03.988Z,20.15
2019-04-06T13:15:41.327Z,19.95
2019-04-06T13:18:20.547Z,19.81
2019-04-06T13:20:59.881Z,19.65
2019-04-06T13:23:44.514Z,19.60
2019-04-06T13:26:22.572Z,19.50
2019-04-06T13:29:11.518Z,19.76
2019-04-06T13:31:49.983Z,20.20
2019-04-06T13:34:31.564Z,20.20
2019-04-06T13:37:07.602Z,20.27
2019-04-06T13:39:40.848Z,19.95
2019-04-06T13:42:31.682Z,20.08
2019-04-06T13:45:19.551Z,20.27
2019-04-06T13:48:07.842Z,20.59
2019-04-06T13:50:53.709Z,20.71
2019-04-06T13:53:30.306Z,20.49
2019-04-06T13:56:06.182Z,20.33
2019-04-06T13:58:41.391Z,20.34
2019-04-06T14:01:19.776Z,20.51
2019-04-06T14:04:05.044Z,20.46
2019-04-06T14:06:44.131Z,20.39
2019-04-06T14:09:20.228Z,20.54
2019-04-06T14:12:04.570Z,20.21
2019-04-06T14:14:49.467Z,20.45
2019-04-06T14:17:34.227Z,20.41
2019-04-06T14:20:14.817Z,20.07
2019-04-06T14:22:48.992Z,19.90
2019-04-06T14:25:26.057Z,19.99
2019-04-06T14:28:10.961Z,20.03
2019-04-06T14:30:43.458Z,19.85
2019-04-06T14:33:19.623Z,19.65
2019-04-06T14:35:52.264Z,19.53
2019-04-06T14:38:25.395Z,19.54
2019-04-06T14:41:03.939Z,19.59
2019-04-06T14:43:53.616Z,19.54
2019-04-06T14:46:34.944Z,19.41
2019-04-06T14:49:29.463Z,19.56
2019-04-06T14:51:56.664Z,19.67
2019-04-06T14:54:48.115Z,19.68
2019-04-06T14:57:24.164Z,19.81
2019-04-06T14:59:57.079Z,19.78
2019-04-06T15:02:44.773Z,19.58
2019-04-06T15:05:23.479Z,19.49
2019-04-06T15:08:01.830Z,19.35
2019-04-06T15:10:35.674Z,19.45
2019-04-06T15:13:12.145Z,19.50
2019-04-06T15:15:44.565Z,19.27
2019-04-06T15:18:33.327Z,19.34
2019-04-06T15:21:07.858Z,19.28
2019-04-06T15:23:56.537Z,19.21
2019-04-06T15:26:38.107Z,19.12
2019-04-06T15:29:29.641Z,19.28
2019-04-06T15:32:17.061Z,19.83
2019-04-06T15:34:55.639Z,19.71
2019-04-06T15:37:31.116Z,19.77
2019-04-06T15:40:12.575Z,19.83
2019-04-06T15:42:45.114Z,19.88
2019-04-06T15:45:20.364Z,19.61
2019-04-06T15:47:52.905Z,19.35
2019-04-06T15:50:28.379Z,19.12
2019-04-06T15:53:07.262Z,18.97
2019-04-06T15:55:39.939Z,18.88
2019-04-06T15:58:15.812Z,18.89
2019-04-06T16:00:51.038Z,18.78
2019-04-06T16:03:23.626Z,18.70
2019-04-06T16:06:00.010Z,18.66
2019-04-06T16:08:35.943Z,18.60
2019-04-06T16:11:22.025Z,18.61
2019-04-06T16:13:59.318Z,18.54
2019-04-06T16:16:32.247Z,18.37
2019-04-06T16:19:24.002Z,18.34
2019-04-06T16:21:56.554Z,18.37
2019-04-06T16:24:29.135Z,18.29
2019-04-06T16:27:09.555Z,18.23
2019-04-06T16:29:49.313Z,18.23
2019-04-06T16:32:31.439Z,18.18
2019-04-06T16:34:57.161Z,18.05
2019-04-06T16:37:36.202Z,18.05
2019-04-06T16:40:18.620Z,18.05
2019-04-06T16:42:52.385Z,17.91
2019-04-06T16:45:27.590Z,17.87
2019-04-06T16:48:16.534Z,17.74
2019-04-06T16:50:55.660Z,17.67
2019-04-06T16:53:44.106Z,17.62
2019-04-06T16:56:16.618Z,17.64
2019-04-06T16:58:52.675Z,17.46
2019-04-06T17:01:25.341Z,17.31
2019-04-06T17:04:13.544Z,17.35
2019-04-06T17:07:03.196Z,17.24
2019-04-06T17:09:36.506Z,17.18
2019-04-06T17:12:13.338Z,17.02
2019-04-06T17:15:04.794Z,16.91
2019-04-06T17:17:45.847Z,16.74
2019-04-06T17:20:21.666Z,16.60
2019-04-06T17:23:00.609Z,16.42
2019-04-06T17:25:41.895Z,16.24
2019-04-06T17:28:17.304Z,16.17
2019-04-06T17:30:49.993Z,16.03
2019-04-06T17:33:40.915Z,15.91
2019-04-06T17:36:26.025Z,15.97
2019-04-06T17:39:10.708Z,15.81
2019-04-06T17:41:46.522Z,15.78
2019-04-06T17:44:31.230Z,15.79
2019-04-06T17:47:21.247Z,15.69
2019-04-06T17:50:10.207Z,15.48
2019-04-06T17:52:51.621Z,15.41
2019-04-06T17:55:42.663Z,15.36
2019-04-06T17:58:16.289Z,15.26
2019-04-06T18:00:50.483Z,15.39
2019-04-06T18:03:26.356Z,15.22
2019-04-06T18:06:06.690Z,15.09
2019-04-06T18:08:55.953Z,14.95
2019-04-06T18:11:32.707Z,14.82
2019-04-06T18:14:05.580Z,14.55
2019-04-06T18:16:36.563Z,14.55
2019-04-06T18:19:07.686Z,14.56
2019-04-06T18:21:39.156Z,14.55
2019-04-06T18:24:11.252Z,14.43
2019-04-06T18:26:42.979Z,14.32
2019-04-06T18:29:13.939Z,14.34
2019-04-06T18:31:56.084Z,14.36
2019-04-06T18:34:27.346Z,14.30
2019-04-06T18:37:04.515Z,14.28
2019-04-06T18:39:36.176Z,14.12
2019-04-06T18:42:07.463Z,13.95
2019-04-06T18:44:41.974Z,13.82
2019-04-06T18:47:12.978Z,13.31
2019-04-06T18:49:44.303Z,13.08
2019-04-06T18:52:16.896Z,13.12
2019-04-06T18:54:48.262Z,13.09
2019-04-06T18:57:22.943Z,12.97
2019-04-06T18:59:53.809Z,12.89
2019-04-06T19:02:24.750Z,12.89
2019-04-06T19:04:57.272Z,12.80
2019-04-06T19:07:28.206Z,12.75
2019-04-06T19:10:00.815Z,12.63
2019-04-06T19:12:33.546Z,12.62
2019-04-06T19:15:06.968Z,12.72
2019-04-06T19:17:39.574Z,12.73
2019-04-06T19:20:13.079Z,12.64
2019-04-06T19:22:45.375Z,12.65
2019-04-06T19:25:16.105Z,12.46
2019-04-06T19:27:47.714Z,12.44
2019-04-06T19:30:19.691Z,12.32
2019-04-06T19:32:52.740Z,12.24
2019-04-06T19:35:25.903Z,12.15
2019-04-06T19:37:57.695Z,12.10
2019-04-06T19:40:29.302Z,12.24
2019-04-06T19:43:01.055Z,12.21
2019-04-06T19:45:32.892Z,12.14
2019-04-06T19:48:04.958Z,12.01
2019-04-06T19:50:37.496Z,11.86
2019-04-06T19:53:08.901Z,11.87
2019-04-06T19:55:42.470Z,11.73
2019-04-06T19:58:14.211Z,11.69
2019-04-06T20:00:46.961Z,11.65
2019-04-06T20:03:19.145Z,11.71
2019-04-06T20:05:50.421Z,11.55
2019-04-06T20:08:23.196Z,11.40
2019-04-06T20:10:54.380Z,11.30
2019-04-06T20:13:28.246Z,11.31
2019-04-06T20:16:00.836Z,11.38
2019-04-06T20:18:32.464Z,11.41
2019-04-06T20:21:03.839Z,11.33
2019-04-06T20:23:34.876Z,11.27
2019-04-06T20:26:06.280Z,11.39
2019-04-06T20:28:37.503Z,11.29
2019-04-06T20:31:10.643Z,11.10
2019-04-06T20:33:50.174Z,10.97
2019-04-06T20:36:14.994Z,10.88
2019-04-06T20:38:46.361Z,10.80
2019-04-06T20:41:18.349Z,10.68
2019-04-06T20:43:49.455Z,10.61
2019-04-06T20:46:22.314Z,10.55
2019-04-06T20:48:53.894Z,10.45
2019-04-06T20:51:25.407Z,10.33
2019-04-06T20:53:58.707Z,10.33
2019-04-06T20:56:30.471Z,10.33
2019-04-06T20:59:03.186Z,10.38
2019-04-06T21:01:34.703Z,10.48
2019-04-06T21:04:05.455Z,10.36
2019-04-06T21:06:37.727Z,10.51
2019-04-06T21:09:14.386Z,10.56
2019-04-06T21:11:46.901Z,10.48
2019-04-06T21:14:18.063Z,10.41
2019-04-06T21:16:51.596Z,10.24
2019-04-06T21:19:22.601Z,10.12
2019-04-06T21:21:54.530Z,10.13
2019-04-06T21:24:28.327Z,10.29
2019-04-06T21:27:00.592Z,10.22
2019-04-06T21:29:32.491Z,10.23
2019-04-06T21:32:03.419Z,10.09
2019-04-06T21:34:35.220Z,10.02
2019-04-06T21:37:06.304Z,9.82
2019-04-06T21:39:41.702Z,9.70
2019-04-06T21:42:12.933Z,9.66
2019-04-06T21:44:43.683Z,9.65
2019-04-06T21:47:14.422Z,9.68
2019-04-06T21:49:45.459Z,9.62
2019-04-06T21:52:18.100Z,9.66
2019-04-06T21:54:49.766Z,9.63
2019-04-06T21:57:21.840Z,9.56
2019-04-06T21:59:53.227Z,9.56
2019-04-06T22:02:24.209Z,9.54
2019-04-06T22:04:55.174Z,9.51
2019-04-06T22:07:25.878Z,9.54
2019-04-06T22:09:57.066Z,9.56
2019-04-06T22:12:28.413Z,9.60
2019-04-06T22:14:59.936Z,9.54
2019-04-06T22:17:32.935Z,9.51
2019-04-06T22:20:04.152Z,9.40
2019-04-06T22:22:35.561Z,9.43
2019-04-06T22:25:06.571Z,9.32
2019-04-06T22:27:37.426Z,9.29
2019-04-06T22:30:10.246Z,9.25
2019-04-06T22:32:41.439Z,9.25
2019-04-06T22:35:12.548Z,9.24
2019-04-06T22:37:46.505Z,9.23
2019-04-06T22:40:18.055Z,9.31
2019-04-06T22:42:49.124Z,9.35
2019-04-06T22:45:21.506Z,9.32
2019-04-06T22:47:52.239Z,9.06
2019-04-06T22:50:23.407Z,8.93
2019-04-06T22:52:54.407Z,8.88
2019-04-06T22:55:25.530Z,8.89
2019-04-06T22:57:56.972Z,8.91
2019-04-06T23:00:32.547Z,8.91
2019-04-06T23:03:05.438Z,8.85
2019-04-06T23:05:44.094Z,8.82
2019-04-06T23:08:15.843Z,8.86
2019-04-06T23:10:47.598Z,8.89
2019-04-06T23:13:18.754Z,8.99
2019-04-06T23:15:50.897Z,8.97
2019-04-06T23:18:23.037Z,9.01
2019-04-06T23:20:53.883Z,8.97
2019-04-06T23:23:25.728Z,8.90
2019-04-06T23:25:56.639Z,8.89
2019-04-06T23:28:27.549Z,8.86
2019-04-06T23:30:58.668Z,8.78
2019-04-06T23:33:30.291Z,8.66
2019-04-06T23:36:01.212Z,8.62
2019-04-06T23:38:31.952Z,8.63
2019-04-06T23:41:02.666Z,8.64
2019-04-06T23:43:33.751Z,8.51
2019-04-06T23:46:04.302Z,8.32
2019-04-06T23:48:36.355Z,8.22
2019-04-06T23:51:08.780Z,8.07
2019-04-06T23:53:39.883Z,8.06
2019-04-06T23:56:10.858Z,8.05
2019-04-06T23:58:43.353Z,7.96
